sensor_id;sensor_type;location;lat;lon;timestamp;temperature;humidity
9389;DHT22;4734;52.778;6.798;2023-08-12T00:02:18;21.40;99.90
9389;DHT22;4734;52.778;6.798;2023-08-12T00:05:04;21.40;99.90
9389;DHT22;4734;52.778;6.798;2023-08-12T00:07:50;21.40;99.90
9389;DHT22;4734;52.778;6.798;2023-08-12T00:10:36;21.30;99.90
9389;DHT22;4734;52.778;6.798;2023-08-12T00:13:23;21.30;99.90
9389;DHT22;4734;52.778;6.798;2023-08-12T00:16:08;21.30;99.90
9389;DHT22;4734;52.778;6.798;2023-08-12T00:18:54;21.20;99.90
9389;DHT22;4734;52.778;6.798;2023-08-12T00:21:39;21.20;99.90
9389;DHT22;4734;52.778;6.798;2023-08-12T00:24:25;21.20;99.90
9389;DHT22;4734;52.778;6.798;2023-08-12T00:27:10;21.20;99.90
9389;DHT22;4734;52.778;6.798;2023-08-12T00:29:57;21.10;99.90
9389;DHT22;4734;52.778;6.798;2023-08-12T00:32:43;21.10;99.90
9389;DHT22;4734;52.778;6.798;2023-08-12T00:35:28;21.10;99.90
9389;DHT22;4734;52.778;6.798;2023-08-12T00:38:14;21.10;99.90
9389;DHT22;4734;52.778;6.798;2023-08-12T00:41:00;21.10;99.90
9389;DHT22;4734;52.778;6.798;2023-08-12T00:43:45;21.00;99.90
9389;DHT22;4734;52.778;6.798;2023-08-12T00:46:33;21.00;99.90
9389;DHT22;4734;52.778;6.798;2023-08-12T00:49:18;21.00;99.90
9389;DHT22;4734;52.778;6.798;2023-08-12T00:52:04;20.90;99.90
9389;DHT22;4734;52.778;6.798;2023-08-12T00:54:50;20.90;99.90
9389;DHT22;4734;52.778;6.798;2023-08-12T00:57:36;20.90;99.90
9389;DHT22;4734;52.778;6.798;2023-08-12T01:00:21;20.90;99.90
9389;DHT22;4734;52.778;6.798;2023-08-12T01:03:10;20.90;99.90
9389;DHT22;4734;52.778;6.798;2023-08-12T01:05:56;20.80;99.90
9389;DHT22;4734;52.778;6.798;2023-08-12T01:08:41;20.80;99.90
9389;DHT22;4734;52.778;6.798;2023-08-12T01:11:32;20.80;99.90
9389;DHT22;4734;52.778;6.798;2023-08-12T01:14:25;20.80;99.90
9389;DHT22;4734;52.778;6.798;2023-08-12T01:17:14;20.80;99.90
9389;DHT22;4734;52.778;6.798;2023-08-12T01:20:01;20.80;99.90
9389;DHT22;4734;52.778;6.798;2023-08-12T01:22:52;20.70;99.90
9389;DHT22;4734;52.778;6.798;2023-08-12T01:25:42;20.70;99.90
9389;DHT22;4734;52.778;6.798;2023-08-12T01:28:28;20.70;99.90
9389;DHT22;4734;52.778;6.798;2023-08-12T01:31:18;20.70;99.90
9389;DHT22;4734;52.778;6.798;2023-08-12T01:34:12;20.70;99.90
9389;DHT22;4734;52.778;6.798;2023-08-12T01:37:01;20.60;99.90
9389;DHT22;4734;52.778;6.798;2023-08-12T01:39:50;20.60;99.90
9389;DHT22;4734;52.778;6.798;2023-08-12T01:42:39;20.60;99.90
9389;DHT22;4734;52.778;6.798;2023-08-12T01:45:25;20.60;99.90
9389;DHT22;4734;52.778;6.798;2023-08-12T01:48:11;20.60;99.90
9389;DHT22;4734;52.778;6.798;2023-08-12T01:50:56;20.50;99.90
9389;DHT22;4734;52.778;6.798;2023-08-12T01:53:42;20.50;99.90
9389;DHT22;4734;52.778;6.798;2023-08-12T01:56:28;20.50;99.90
9389;DHT22;4734;52.778;6.798;2023-08-12T01:59:15;20.50;99.90
9389;DHT22;4734;52.778;6.798;2023-08-12T02:02:01;20.50;99.90
9389;DHT22;4734;52.778;6.798;2023-08-12T02:04:46;20.50;99.90
9389;DHT22;4734;52.778;6.798;2023-08-12T02:07:32;20.40;99.90
9389;DHT22;4734;52.778;6.798;2023-08-12T02:10:17;20.40;99.90
9389;DHT22;4734;52.778;6.798;2023-08-12T02:13:03;20.40;99.90
9389;DHT22;4734;52.778;6.798;2023-08-12T02:15:50;20.40;99.90
9389;DHT22;4734;52.778;6.798;2023-08-12T02:18:35;20.40;99.90
9389;DHT22;4734;52.778;6.798;2023-08-12T02:21:21;20.40;99.90
9389;DHT22;4734;52.778;6.798;2023-08-12T02:24:07;20.30;99.90
9389;DHT22;4734;52.778;6.798;2023-08-12T02:26:53;20.30;99.90
9389;DHT22;4734;52.778;6.798;2023-08-12T02:29:39;20.30;99.90
9389;DHT22;4734;52.778;6.798;2023-08-12T02:32:26;20.30;99.90
9389;DHT22;4734;52.778;6.798;2023-08-12T02:35:11;20.30;99.90
9389;DHT22;4734;52.778;6.798;2023-08-12T02:37:57;20.30;99.90
9389;DHT22;4734;52.778;6.798;2023-08-12T02:40:42;20.30;99.90
9389;DHT22;4734;52.778;6.798;2023-08-12T02:43:28;20.30;99.90
9389;DHT22;4734;52.778;6.798;2023-08-12T02:46:14;20.20;99.90
9389;DHT22;4734;52.778;6.798;2023-08-12T02:49:01;20.20;99.90
9389;DHT22;4734;52.778;6.798;2023-08-12T02:51:46;20.20;99.90
9389;DHT22;4734;52.778;6.798;2023-08-12T02:54:32;20.20;99.90
9389;DHT22;4734;52.778;6.798;2023-08-12T02:57:17;20.20;99.90
9389;DHT22;4734;52.778;6.798;2023-08-12T03:00:03;20.20;99.90
9389;DHT22;4734;52.778;6.798;2023-08-12T03:02:49;20.20;99.90
9389;DHT22;4734;52.778;6.798;2023-08-12T03:05:36;20.20;99.90
9389;DHT22;4734;52.778;6.798;2023-08-12T03:08:22;20.20;99.90
9389;DHT22;4734;52.778;6.798;2023-08-12T03:11:07;20.10;99.90
9389;DHT22;4734;52.778;6.798;2023-08-12T03:13:53;20.10;99.90
9389;DHT22;4734;52.778;6.798;2023-08-12T03:16:39;20.10;99.90
9389;DHT22;4734;52.778;6.798;2023-08-12T03:19:24;20.20;99.90
9389;DHT22;4734;52.778;6.798;2023-08-12T03:22:11;20.20;99.90
9389;DHT22;4734;52.778;6.798;2023-08-12T03:24:57;20.10;99.90
9389;DHT22;4734;52.778;6.798;2023-08-12T03:27:42;20.10;99.90
9389;DHT22;4734;52.778;6.798;2023-08-12T03:30:28;20.10;99.90
9389;DHT22;4734;52.778;6.798;2023-08-12T03:33:14;20.10;99.90
9389;DHT22;4734;52.778;6.798;2023-08-12T03:35:59;20.10;99.90
9389;DHT22;4734;52.778;6.798;2023-08-12T03:38:46;20.10;99.90
9389;DHT22;4734;52.778;6.798;2023-08-12T03:41:32;20.10;99.90
9389;DHT22;4734;52.778;6.798;2023-08-12T03:44:17;20.10;99.90
9389;DHT22;4734;52.778;6.798;2023-08-12T03:47:03;20.00;99.90
9389;DHT22;4734;52.778;6.798;2023-08-12T03:49:49;20.00;99.90
9389;DHT22;4734;52.778;6.798;2023-08-12T03:52:34;20.00;99.90
9389;DHT22;4734;52.778;6.798;2023-08-12T03:55:21;20.00;99.90
9389;DHT22;4734;52.778;6.798;2023-08-12T03:58:06;20.00;99.90
9389;DHT22;4734;52.778;6.798;2023-08-12T04:00:52;19.90;99.90
9389;DHT22;4734;52.778;6.798;2023-08-12T04:03:38;19.90;99.90
9389;DHT22;4734;52.778;6.798;2023-08-12T04:06:23;19.90;99.90
9389;DHT22;4734;52.778;6.798;2023-08-12T04:09:09;19.90;99.90
9389;DHT22;4734;52.778;6.798;2023-08-12T04:11:56;19.90;99.90
9389;DHT22;4734;52.778;6.798;2023-08-12T04:14:41;19.90;99.90
9389;DHT22;4734;52.778;6.798;2023-08-12T04:17:27;19.90;99.90
9389;DHT22;4734;52.778;6.798;2023-08-12T04:20:13;19.90;99.90
9389;DHT22;4734;52.778;6.798;2023-08-12T04:22:59;19.90;99.90
9389;DHT22;4734;52.778;6.798;2023-08-12T04:25:45;19.90;99.90
9389;DHT22;4734;52.778;6.798;2023-08-12T04:28:32;19.80;99.90
9389;DHT22;4734;52.778;6.798;2023-08-12T04:31:18;19.90;99.90
9389;DHT22;4734;52.778;6.798;2023-08-12T04:34:04;19.90;99.90
9389;DHT22;4734;52.778;6.798;2023-08-12T04:36:49;19.80;99.90
9389;DHT22;4734;52.778;6.798;2023-08-12T04:39:35;19.90;99.90
9389;DHT22;4734;52.778;6.798;2023-08-12T04:42:20;19.80;99.90
9389;DHT22;4734;52.778;6.798;2023-08-12T04:45:08;19.80;99.90
9389;DHT22;4734;52.778;6.798;2023-08-12T04:47:55;19.80;99.90
9389;DHT22;4734;52.778;6.798;2023-08-12T04:50:41;19.80;99.90
9389;DHT22;4734;52.778;6.798;2023-08-12T04:53:27;19.80;99.90
9389;DHT22;4734;52.778;6.798;2023-08-12T04:56:13;19.80;99.90
9389;DHT22;4734;52.778;6.798;2023-08-12T04:58:58;19.80;99.90
9389;DHT22;4734;52.778;6.798;2023-08-12T05:01:45;19.80;99.90
9389;DHT22;4734;52.778;6.798;2023-08-12T05:04:30;19.80;99.90
9389;DHT22;4734;52.778;6.798;2023-08-12T05:07:16;19.80;99.90
9389;DHT22;4734;52.778;6.798;2023-08-12T05:10:02;19.80;99.90
9389;DHT22;4734;52.778;6.798;2023-08-12T05:12:48;19.80;99.90
9389;DHT22;4734;52.778;6.798;2023-08-12T05:15:34;19.80;99.90
9389;DHT22;4734;52.778;6.798;2023-08-12T05:18:23;19.80;99.90
9389;DHT22;4734;52.778;6.798;2023-08-12T05:21:08;19.80;99.90
9389;DHT22;4734;52.778;6.798;2023-08-12T05:23:54;19.80;99.90
9389;DHT22;4734;52.778;6.798;2023-08-12T05:26:39;19.80;99.90
9389;DHT22;4734;52.778;6.798;2023-08-12T05:29:25;19.70;99.90
9389;DHT22;4734;52.778;6.798;2023-08-12T05:32:10;19.80;99.90
9389;DHT22;4734;52.778;6.798;2023-08-12T05:34:58;19.80;99.90
9389;DHT22;4734;52.778;6.798;2023-08-12T05:37:43;19.70;99.90
9389;DHT22;4734;52.778;6.798;2023-08-12T05:40:29;19.80;99.90
9389;DHT22;4734;52.778;6.798;2023-08-12T05:43:14;19.80;99.90
9389;DHT22;4734;52.778;6.798;2023-08-12T05:46:00;19.80;99.90
9389;DHT22;4734;52.778;6.798;2023-08-12T05:48:46;19.80;99.90
9389;DHT22;4734;52.778;6.798;2023-08-12T05:51:32;19.80;99.90
9389;DHT22;4734;52.778;6.798;2023-08-12T05:54:18;19.90;99.90
9389;DHT22;4734;52.778;6.798;2023-08-12T05:57:04;19.90;99.90
9389;DHT22;4734;52.778;6.798;2023-08-12T05:59:50;19.90;99.90
9389;DHT22;4734;52.778;6.798;2023-08-12T06:02:35;20.00;99.90
9389;DHT22;4734;52.778;6.798;2023-08-12T06:05:21;20.00;99.90
9389;DHT22;4734;52.778;6.798;2023-08-12T06:08:08;20.00;99.90
9389;DHT22;4734;52.778;6.798;2023-08-12T06:10:53;20.10;99.90
9389;DHT22;4734;52.778;6.798;2023-08-12T06:13:39;20.10;99.90
9389;DHT22;4734;52.778;6.798;2023-08-12T06:16:25;20.10;99.90
9389;DHT22;4734;52.778;6.798;2023-08-12T06:19:10;20.20;99.90
9389;DHT22;4734;52.778;6.798;2023-08-12T06:21:56;20.20;99.90
9389;DHT22;4734;52.778;6.798;2023-08-12T06:24:43;20.30;99.90
9389;DHT22;4734;52.778;6.798;2023-08-12T06:27:28;20.30;99.90
9389;DHT22;4734;52.778;6.798;2023-08-12T06:30:14;20.40;99.90
9389;DHT22;4734;52.778;6.798;2023-08-12T06:33:00;20.40;99.90
9389;DHT22;4734;52.778;6.798;2023-08-12T06:35:45;20.50;99.90
9389;DHT22;4734;52.778;6.798;2023-08-12T06:38:31;20.50;99.90
9389;DHT22;4734;52.778;6.798;2023-08-12T06:41:18;20.60;99.90
9389;DHT22;4734;52.778;6.798;2023-08-12T06:44:04;20.60;99.90
9389;DHT22;4734;52.778;6.798;2023-08-12T06:46:49;20.70;99.90
9389;DHT22;4734;52.778;6.798;2023-08-12T06:49:35;20.70;99.90
9389;DHT22;4734;52.778;6.798;2023-08-12T06:52:21;20.70;99.90
9389;DHT22;4734;52.778;6.798;2023-08-12T06:55:07;20.70;99.90
9389;DHT22;4734;52.778;6.798;2023-08-12T06:57:54;20.80;99.90
9389;DHT22;4734;52.778;6.798;2023-08-12T07:00:39;20.80;99.90
9389;DHT22;4734;52.778;6.798;2023-08-12T07:03:25;20.80;99.90
9389;DHT22;4734;52.778;6.798;2023-08-12T07:06:11;20.90;99.90
9389;DHT22;4734;52.778;6.798;2023-08-12T07:08:59;20.90;99.90
9389;DHT22;4734;52.778;6.798;2023-08-12T07:11:47;20.90;99.90
9389;DHT22;4734;52.778;6.798;2023-08-12T07:14:34;20.90;99.90
9389;DHT22;4734;52.778;6.798;2023-08-12T07:17:19;20.90;99.90
9389;DHT22;4734;52.778;6.798;2023-08-12T07:20:06;20.90;99.90
9389;DHT22;4734;52.778;6.798;2023-08-12T07:22:52;20.90;99.90
9389;DHT22;4734;52.778;6.798;2023-08-12T07:25:38;21.00;99.90
9389;DHT22;4734;52.778;6.798;2023-08-12T07:28:23;21.00;99.90
9389;DHT22;4734;52.778;6.798;2023-08-12T07:31:10;21.00;99.90
9389;DHT22;4734;52.778;6.798;2023-08-12T07:33:56;21.00;99.90
9389;DHT22;4734;52.778;6.798;2023-08-12T07:36:41;21.00;99.90
9389;DHT22;4734;52.778;6.798;2023-08-12T07:39:27;21.00;99.90
9389;DHT22;4734;52.778;6.798;2023-08-12T07:42:13;21.00;99.90
9389;DHT22;4734;52.778;6.798;2023-08-12T07:44:58;21.00;99.90
9389;DHT22;4734;52.778;6.798;2023-08-12T07:47:45;21.00;99.90
9389;DHT22;4734;52.778;6.798;2023-08-12T07:50:31;21.00;99.90
9389;DHT22;4734;52.778;6.798;2023-08-12T07:53:16;21.00;99.90
9389;DHT22;4734;52.778;6.798;2023-08-12T07:56:02;21.00;99.90
9389;DHT22;4734;52.778;6.798;2023-08-12T07:58:48;21.00;99.90
9389;DHT22;4734;52.778;6.798;2023-08-12T08:01:34;21.00;99.90
9389;DHT22;4734;52.778;6.798;2023-08-12T08:04:21;21.00;99.90
9389;DHT22;4734;52.778;6.798;2023-08-12T08:07:06;21.00;99.90
9389;DHT22;4734;52.778;6.798;2023-08-12T08:09:55;21.00;99.90
9389;DHT22;4734;52.778;6.798;2023-08-12T08:12:40;21.00;99.90
9389;DHT22;4734;52.778;6.798;2023-08-12T08:15:35;21.00;99.90
9389;DHT22;4734;52.778;6.798;2023-08-12T08:18:28;21.00;99.90
9389;DHT22;4734;52.778;6.798;2023-08-12T08:21:16;20.90;99.90
9389;DHT22;4734;52.778;6.798;2023-08-12T08:24:02;21.00;99.90
9389;DHT22;4734;52.778;6.798;2023-08-12T08:26:48;21.00;99.90
9389;DHT22;4734;52.778;6.798;2023-08-12T08:29:39;21.00;99.90
9389;DHT22;4734;52.778;6.798;2023-08-12T08:32:31;21.00;99.90
9389;DHT22;4734;52.778;6.798;2023-08-12T08:35:18;20.90;99.90
9389;DHT22;4734;52.778;6.798;2023-08-12T08:38:13;21.00;99.90
9389;DHT22;4734;52.778;6.798;2023-08-12T08:41:05;20.90;99.90
9389;DHT22;4734;52.778;6.798;2023-08-12T08:43:55;20.90;99.90
9389;DHT22;4734;52.778;6.798;2023-08-12T08:46:47;20.90;99.90
9389;DHT22;4734;52.778;6.798;2023-08-12T08:49:34;20.90;99.90
9389;DHT22;4734;52.778;6.798;2023-08-12T08:52:21;20.90;99.90
9389;DHT22;4734;52.778;6.798;2023-08-12T08:55:09;20.90;99.90
9389;DHT22;4734;52.778;6.798;2023-08-12T08:57:56;20.90;99.90
9389;DHT22;4734;52.778;6.798;2023-08-12T09:00:42;20.90;99.90
9389;DHT22;4734;52.778;6.798;2023-08-12T09:03:29;20.90;99.90
9389;DHT22;4734;52.778;6.798;2023-08-12T09:06:15;20.90;99.90
9389;DHT22;4734;52.778;6.798;2023-08-12T09:09:01;20.90;99.90
9389;DHT22;4734;52.778;6.798;2023-08-12T09:11:49;20.90;99.90
9389;DHT22;4734;52.778;6.798;2023-08-12T09:14:35;20.90;99.90
9389;DHT22;4734;52.778;6.798;2023-08-12T09:17:21;20.90;99.90
9389;DHT22;4734;52.778;6.798;2023-08-12T09:20:07;20.90;99.90
9389;DHT22;4734;52.778;6.798;2023-08-12T09:22:56;20.80;99.90
9389;DHT22;4734;52.778;6.798;2023-08-12T09:25:45;20.90;99.90
9389;DHT22;4734;52.778;6.798;2023-08-12T09:28:32;20.80;99.90
9389;DHT22;4734;52.778;6.798;2023-08-12T09:31:25;20.80;99.90
9389;DHT22;4734;52.778;6.798;2023-08-12T09:34:10;20.80;99.90
9389;DHT22;4734;52.778;6.798;2023-08-12T09:36:56;20.80;99.90
9389;DHT22;4734;52.778;6.798;2023-08-12T09:39:42;20.80;99.90
9389;DHT22;4734;52.778;6.798;2023-08-12T09:42:29;20.80;99.90
9389;DHT22;4734;52.778;6.798;2023-08-12T09:45:16;20.80;99.90
9389;DHT22;4734;52.778;6.798;2023-08-12T09:48:05;20.80;99.90
9389;DHT22;4734;52.778;6.798;2023-08-12T09:50:52;20.80;99.90
9389;DHT22;4734;52.778;6.798;2023-08-12T09:53:38;20.80;99.90
9389;DHT22;4734;52.778;6.798;2023-08-12T09:56:27;20.80;99.90
9389;DHT22;4734;52.778;6.798;2023-08-12T09:59:19;20.70;99.90
9389;DHT22;4734;52.778;6.798;2023-08-12T10:02:06;20.70;99.90
9389;DHT22;4734;52.778;6.798;2023-08-12T10:04:54;20.70;99.90
9389;DHT22;4734;52.778;6.798;2023-08-12T10:07:42;20.70;99.90
9389;DHT22;4734;52.778;6.798;2023-08-12T10:10:32;20.70;99.90
9389;DHT22;4734;52.778;6.798;2023-08-12T10:13:18;20.70;99.90
9389;DHT22;4734;52.778;6.798;2023-08-12T10:16:05;20.70;99.90
9389;DHT22;4734;52.778;6.798;2023-08-12T10:18:53;20.70;99.90
9389;DHT22;4734;52.778;6.798;2023-08-12T10:21:40;20.60;99.90
9389;DHT22;4734;52.778;6.798;2023-08-12T10:24:29;20.60;99.90
9389;DHT22;4734;52.778;6.798;2023-08-12T10:27:16;20.60;99.90
9389;DHT22;4734;52.778;6.798;2023-08-12T10:30:03;20.60;99.90
9389;DHT22;4734;52.778;6.798;2023-08-12T10:32:49;20.60;99.90
9389;DHT22;4734;52.778;6.798;2023-08-12T10:35:45;20.60;99.90
9389;DHT22;4734;52.778;6.798;2023-08-12T10:38:32;20.60;99.90
9389;DHT22;4734;52.778;6.798;2023-08-12T10:41:19;20.60;99.90
9389;DHT22;4734;52.778;6.798;2023-08-12T10:44:05;20.60;99.90
9389;DHT22;4734;52.778;6.798;2023-08-12T10:46:51;20.60;99.90
9389;DHT22;4734;52.778;6.798;2023-08-12T10:49:42;20.60;99.90
9389;DHT22;4734;52.778;6.798;2023-08-12T10:52:31;20.60;99.90
9389;DHT22;4734;52.778;6.798;2023-08-12T10:55:19;20.60;99.90
9389;DHT22;4734;52.778;6.798;2023-08-12T10:58:08;20.60;99.90
9389;DHT22;4734;52.778;6.798;2023-08-12T11:00:54;20.70;99.90
9389;DHT22;4734;52.778;6.798;2023-08-12T11:03:42;20.70;99.90
9389;DHT22;4734;52.778;6.798;2023-08-12T11:06:28;20.70;99.90
9389;DHT22;4734;52.778;6.798;2023-08-12T11:09:15;20.70;99.90
9389;DHT22;4734;52.778;6.798;2023-08-12T11:12:00;20.70;99.90
9389;DHT22;4734;52.778;6.798;2023-08-12T11:14:51;20.70;99.90
9389;DHT22;4734;52.778;6.798;2023-08-12T11:17:40;20.70;99.90
9389;DHT22;4734;52.778;6.798;2023-08-12T11:20:28;20.80;99.90
9389;DHT22;4734;52.778;6.798;2023-08-12T11:23:14;20.80;99.90
9389;DHT22;4734;52.778;6.798;2023-08-12T11:26:01;20.80;99.90
9389;DHT22;4734;52.778;6.798;2023-08-12T11:28:48;20.90;99.90
9389;DHT22;4734;52.778;6.798;2023-08-12T11:31:34;20.90;99.90
9389;DHT22;4734;52.778;6.798;2023-08-12T11:34:20;20.90;99.90
9389;DHT22;4734;52.778;6.798;2023-08-12T11:37:06;21.00;99.90
9389;DHT22;4734;52.778;6.798;2023-08-12T11:39:52;21.00;99.90
9389;DHT22;4734;52.778;6.798;2023-08-12T11:42:40;21.00;99.90
9389;DHT22;4734;52.778;6.798;2023-08-12T11:45:26;21.10;99.90
9389;DHT22;4734;52.778;6.798;2023-08-12T11:48:12;21.10;99.90
9389;DHT22;4734;52.778;6.798;2023-08-12T11:50:58;21.10;99.90
9389;DHT22;4734;52.778;6.798;2023-08-12T11:53:44;21.20;99.90
9389;DHT22;4734;52.778;6.798;2023-08-12T11:56:29;21.20;99.90
9389;DHT22;4734;52.778;6.798;2023-08-12T11:59:16;21.20;99.90
9389;DHT22;4734;52.778;6.798;2023-08-12T12:02:02;21.30;99.90
9389;DHT22;4734;52.778;6.798;2023-08-12T12:04:51;21.30;99.90
9389;DHT22;4734;52.778;6.798;2023-08-12T12:07:36;21.30;99.90
9389;DHT22;4734;52.778;6.798;2023-08-12T12:10:27;21.40;99.90
9389;DHT22;4734;52.778;6.798;2023-08-12T12:13:12;21.40;99.90
9389;DHT22;4734;52.778;6.798;2023-08-12T12:16:00;21.50;99.90
9389;DHT22;4734;52.778;6.798;2023-08-12T12:18:45;21.50;99.90
9389;DHT22;4734;52.778;6.798;2023-08-12T12:21:38;21.50;99.90
9389;DHT22;4734;52.778;6.798;2023-08-12T12:24:29;21.60;99.90
9389;DHT22;4734;52.778;6.798;2023-08-12T12:27:15;21.70;99.90
9389;DHT22;4734;52.778;6.798;2023-08-12T12:30:01;21.70;99.90
9389;DHT22;4734;52.778;6.798;2023-08-12T12:32:48;21.70;99.90
9389;DHT22;4734;52.778;6.798;2023-08-12T12:35:35;21.80;99.90
9389;DHT22;4734;52.778;6.798;2023-08-12T12:38:21;21.80;99.90
9389;DHT22;4734;52.778;6.798;2023-08-12T12:41:06;21.80;99.90
9389;DHT22;4734;52.778;6.798;2023-08-12T12:43:53;21.90;99.90
9389;DHT22;4734;52.778;6.798;2023-08-12T12:46:39;21.90;99.90
9389;DHT22;4734;52.778;6.798;2023-08-12T12:49:26;21.90;99.90
9389;DHT22;4734;52.778;6.798;2023-08-12T12:52:12;22.00;99.90
9389;DHT22;4734;52.778;6.798;2023-08-12T12:54:57;22.00;99.90
9389;DHT22;4734;52.778;6.798;2023-08-12T12:57:44;22.00;99.90
9389;DHT22;4734;52.778;6.798;2023-08-12T13:00:30;22.00;99.90
9389;DHT22;4734;52.778;6.798;2023-08-12T13:03:16;22.00;99.90
9389;DHT22;4734;52.778;6.798;2023-08-12T13:06:03;22.00;99.90
9389;DHT22;4734;52.778;6.798;2023-08-12T13:08:49;22.10;99.90
9389;DHT22;4734;52.778;6.798;2023-08-12T13:11:37;22.10;99.90
9389;DHT22;4734;52.778;6.798;2023-08-12T13:14:23;22.10;99.90
9389;DHT22;4734;52.778;6.798;2023-08-12T13:17:08;22.10;99.90
9389;DHT22;4734;52.778;6.798;2023-08-12T13:19:54;22.10;99.90
9389;DHT22;4734;52.778;6.798;2023-08-12T13:22:41;22.10;99.90
9389;DHT22;4734;52.778;6.798;2023-08-12T13:25:28;22.10;99.90
9389;DHT22;4734;52.778;6.798;2023-08-12T13:28:14;22.10;99.90
9389;DHT22;4734;52.778;6.798;2023-08-12T13:31:00;22.10;99.90
9389;DHT22;4734;52.778;6.798;2023-08-12T13:33:45;22.10;99.90
9389;DHT22;4734;52.778;6.798;2023-08-12T13:36:32;22.10;99.90
9389;DHT22;4734;52.778;6.798;2023-08-12T13:39:18;22.20;99.90
9389;DHT22;4734;52.778;6.798;2023-08-12T13:42:04;22.20;99.90
9389;DHT22;4734;52.778;6.798;2023-08-12T13:44:50;22.20;99.90
9389;DHT22;4734;52.778;6.798;2023-08-12T13:47:35;22.30;99.90
9389;DHT22;4734;52.778;6.798;2023-08-12T13:50:21;22.40;99.90
9389;DHT22;4734;52.778;6.798;2023-08-12T13:53:07;22.40;99.90
9389;DHT22;4734;52.778;6.798;2023-08-12T13:55:54;22.50;99.90
9389;DHT22;4734;52.778;6.798;2023-08-12T13:58:39;22.50;99.90
9389;DHT22;4734;52.778;6.798;2023-08-12T14:01:25;22.60;99.90
9389;DHT22;4734;52.778;6.798;2023-08-12T14:04:10;22.70;99.90
9389;DHT22;4734;52.778;6.798;2023-08-12T14:06:56;22.70;99.90
9389;DHT22;4734;52.778;6.798;2023-08-12T14:09:42;22.90;99.90
9389;DHT22;4734;52.778;6.798;2023-08-12T14:12:29;23.00;99.90
9389;DHT22;4734;52.778;6.798;2023-08-12T14:15:14;23.10;99.90
9389;DHT22;4734;52.778;6.798;2023-08-12T14:18:00;23.30;99.90
9389;DHT22;4734;52.778;6.798;2023-08-12T14:20:46;23.40;99.90
9389;DHT22;4734;52.778;6.798;2023-08-12T14:23:31;23.50;99.90
9389;DHT22;4734;52.778;6.798;2023-08-12T14:26:17;23.70;99.90
9389;DHT22;4734;52.778;6.798;2023-08-12T14:29:04;23.90;99.90
9389;DHT22;4734;52.778;6.798;2023-08-12T14:31:50;24.00;99.90
9389;DHT22;4734;52.778;6.798;2023-08-12T14:34:36;24.20;99.90
9389;DHT22;4734;52.778;6.798;2023-08-12T14:37:22;24.30;99.90
9389;DHT22;4734;52.778;6.798;2023-08-12T14:40:08;24.50;99.90
9389;DHT22;4734;52.778;6.798;2023-08-12T14:42:54;24.70;99.90
9389;DHT22;4734;52.778;6.798;2023-08-12T14:45:44;24.90;99.90
9389;DHT22;4734;52.778;6.798;2023-08-12T14:48:31;25.10;99.90
9389;DHT22;4734;52.778;6.798;2023-08-12T14:51:17;25.20;99.90
9389;DHT22;4734;52.778;6.798;2023-08-12T14:54:02;25.40;99.90
9389;DHT22;4734;52.778;6.798;2023-08-12T14:56:48;25.60;99.90
9389;DHT22;4734;52.778;6.798;2023-08-12T14:59:34;25.70;99.90
9389;DHT22;4734;52.778;6.798;2023-08-12T15:02:21;25.90;99.90
9389;DHT22;4734;52.778;6.798;2023-08-12T15:05:08;26.10;99.90
9389;DHT22;4734;52.778;6.798;2023-08-12T15:07:54;26.20;99.90
9389;DHT22;4734;52.778;6.798;2023-08-12T15:10:39;26.30;99.90
9389;DHT22;4734;52.778;6.798;2023-08-12T15:13:25;26.40;99.90
9389;DHT22;4734;52.778;6.798;2023-08-12T15:16:11;26.50;99.90
9389;DHT22;4734;52.778;6.798;2023-08-12T15:18:58;26.60;99.90
9389;DHT22;4734;52.778;6.798;2023-08-12T15:52:19;26.70;99.90
9389;DHT22;4734;52.778;6.798;2023-08-12T15:55:05;26.80;99.90
9389;DHT22;4734;52.778;6.798;2023-08-12T15:57:50;26.80;99.90
9389;DHT22;4734;52.778;6.798;2023-08-12T16:00:36;26.70;99.90
9389;DHT22;4734;52.778;6.798;2023-08-12T16:03:24;26.70;99.90
9389;DHT22;4734;52.778;6.798;2023-08-12T16:06:09;26.60;99.90
9389;DHT22;4734;52.778;6.798;2023-08-12T16:08:56;26.60;99.90
9389;DHT22;4734;52.778;6.798;2023-08-12T16:11:42;26.50;99.90
9389;DHT22;4734;52.778;6.798;2023-08-12T16:14:27;26.40;99.90
9389;DHT22;4734;52.778;6.798;2023-08-12T16:17:13;26.40;99.90
9389;DHT22;4734;52.778;6.798;2023-08-12T16:19:59;26.40;99.90
9389;DHT22;4734;52.778;6.798;2023-08-12T16:22:44;26.40;99.90
9389;DHT22;4734;52.778;6.798;2023-08-12T16:25:31;26.30;99.90
9389;DHT22;4734;52.778;6.798;2023-08-12T16:28:17;26.30;99.90
9389;DHT22;4734;52.778;6.798;2023-08-12T16:31:03;26.20;99.90
9389;DHT22;4734;52.778;6.798;2023-08-12T16:33:48;26.30;99.90
9389;DHT22;4734;52.778;6.798;2023-08-12T16:36:34;26.20;99.90
9389;DHT22;4734;52.778;6.798;2023-08-12T16:39:19;26.20;99.90
9389;DHT22;4734;52.778;6.798;2023-08-12T16:42:06;26.20;99.90
9389;DHT22;4734;52.778;6.798;2023-08-12T16:44:52;26.20;99.90
9389;DHT22;4734;52.778;6.798;2023-08-12T16:47:38;26.20;99.90
9389;DHT22;4734;52.778;6.798;2023-08-12T16:50:23;26.20;99.90
9389;DHT22;4734;52.778;6.798;2023-08-12T16:53:09;26.20;99.90
9389;DHT22;4734;52.778;6.798;2023-08-12T16:55:55;26.20;99.90
9389;DHT22;4734;52.778;6.798;2023-08-12T16:58:42;26.20;99.90
9389;DHT22;4734;52.778;6.798;2023-08-12T17:01:27;26.30;99.90
9389;DHT22;4734;52.778;6.798;2023-08-12T17:04:13;26.20;99.90
9389;DHT22;4734;52.778;6.798;2023-08-12T17:06:58;26.30;99.90
9389;DHT22;4734;52.778;6.798;2023-08-12T17:09:44;26.30;99.90
9389;DHT22;4734;52.778;6.798;2023-08-12T17:12:30;26.30;99.90
9389;DHT22;4734;52.778;6.798;2023-08-12T17:15:17;26.30;99.90
9389;DHT22;4734;52.778;6.798;2023-08-12T17:18:02;26.30;99.90
9389;DHT22;4734;52.778;6.798;2023-08-12T17:20:48;26.40;99.90
9389;DHT22;4734;52.778;6.798;2023-08-12T17:23:34;26.40;99.90
9389;DHT22;4734;52.778;6.798;2023-08-12T17:26:19;26.40;99.90
9389;DHT22;4734;52.778;6.798;2023-08-12T17:29:05;26.40;99.90
9389;DHT22;4734;52.778;6.798;2023-08-12T17:31:52;26.40;99.90
9389;DHT22;4734;52.778;6.798;2023-08-12T17:34:37;26.40;99.90
9389;DHT22;4734;52.778;6.798;2023-08-12T17:37:23;26.50;99.90
9389;DHT22;4734;52.778;6.798;2023-08-12T17:40:10;26.50;99.90
9389;DHT22;4734;52.778;6.798;2023-08-12T17:42:56;26.50;99.90
9389;DHT22;4734;52.778;6.798;2023-08-12T17:45:42;26.50;99.90
9389;DHT22;4734;52.778;6.798;2023-08-12T17:48:29;26.50;99.90
9389;DHT22;4734;52.778;6.798;2023-08-12T17:51:15;26.50;99.90
9389;DHT22;4734;52.778;6.798;2023-08-12T17:54:01;26.40;99.90
9389;DHT22;4734;52.778;6.798;2023-08-12T17:56:46;26.50;99.90
9389;DHT22;4734;52.778;6.798;2023-08-12T17:59:32;26.40;99.90
9389;DHT22;4734;52.778;6.798;2023-08-12T18:02:17;26.40;99.90
9389;DHT22;4734;52.778;6.798;2023-08-12T18:05:05;26.30;99.90
9389;DHT22;4734;52.778;6.798;2023-08-12T18:07:51;26.30;99.90
9389;DHT22;4734;52.778;6.798;2023-08-12T18:10:37;26.20;99.90
9389;DHT22;4734;52.778;6.798;2023-08-12T18:13:22;26.20;99.90
9389;DHT22;4734;52.778;6.798;2023-08-12T18:16:08;26.10;99.90
9389;DHT22;4734;52.778;6.798;2023-08-12T18:18:53;26.10;99.90
9389;DHT22;4734;52.778;6.798;2023-08-12T18:21:40;26.00;99.90
9389;DHT22;4734;52.778;6.798;2023-08-12T18:24:26;26.00;99.90
9389;DHT22;4734;52.778;6.798;2023-08-12T18:27:13;25.90;99.90
9389;DHT22;4734;52.778;6.798;2023-08-12T18:29:59;25.70;99.90
9389;DHT22;4734;52.778;6.798;2023-08-12T18:32:45;25.60;99.90
9389;DHT22;4734;52.778;6.798;2023-08-12T18:35:31;25.50;99.90
9389;DHT22;4734;52.778;6.798;2023-08-12T18:38:18;25.40;99.90